createdAt,value
2019-05-13T04:36:56.404Z,103630.45
2019-05-13T04:40:33.178Z,103628.17
2019-05-13T04:51:43.547Z,103633.23
2019-05-13T04:55:06.886Z,103641.53
2019-05-13T04:58:32.242Z,103650.86
2019-05-13T05:06:06.607Z,103643.91
2019-05-13T05:11:02.199Z,103653.34
2019-05-13T05:15:19.791Z,103655.14
2019-05-13T05:19:47.395Z,103657.59
2019-05-13T05:24:07.865Z,103660.75
2019-05-13T05:28:13.973Z,103661.56
2019-05-13T05:32:16.080Z,103666.31
2019-05-13T05:36:52.009Z,103665.86
2019-05-13T05:40:31.037Z,103666.06
2019-05-13T05:43:45.587Z,103656.21
2019-05-13T05:47:11.289Z,103659.06
2019-05-13T05:50:36.006Z,103653.34
2019-05-13T05:54:02.584Z,103654.31
2019-05-13T05:57:31.391Z,103659.42
2019-05-13T06:00:56.013Z,103657.72
2019-05-13T06:04:21.860Z,103664.75
2019-05-13T06:07:45.226Z,103668.34
2019-05-13T06:11:11.620Z,103672.49
2019-05-13T06:14:35.438Z,103674.39
2019-05-13T06:17:58.755Z,103671.54
2019-05-13T06:21:22.541Z,103662.34
2019-05-13T06:24:45.706Z,103667.06
2019-05-13T06:28:08.900Z,103669.55
2019-05-13T06:31:32.474Z,103678.14
2019-05-13T06:34:55.755Z,103678.69
2019-05-13T06:38:18.985Z,103677.08
2019-05-13T06:41:42.153Z,103681.50
2019-05-13T06:45:05.654Z,103689.93
2019-05-13T06:48:29.374Z,103678.33
2019-05-13T06:51:52.894Z,103681.82
2019-05-13T06:55:16.219Z,103688.60
2019-05-13T06:58:41.536Z,103680.08
2019-05-13T07:02:04.707Z,103675.53
2019-05-13T07:05:27.832Z,103680.08
2019-05-13T07:08:52.128Z,103683.90
2019-05-13T07:12:15.595Z,103677.42
2019-05-13T07:15:41.413Z,103688.28
2019-05-13T07:19:04.258Z,103683.25
2019-05-13T07:22:27.845Z,103679.19
2019-05-13T07:25:52.478Z,103684.13
2019-05-13T07:29:16.669Z,103682.88
2019-05-13T07:32:42.090Z,103682.50
2019-05-13T07:36:05.499Z,103685.40
2019-05-13T07:39:28.932Z,103684.98
2019-05-13T07:42:52.362Z,103679.69
2019-05-13T07:46:15.537Z,103689.72
2019-05-13T07:49:38.906Z,103684.11
2019-05-13T07:53:02.465Z,103682.47
2019-05-13T07:56:25.746Z,103683.84
2019-05-13T07:59:48.941Z,103689.98
2019-05-13T08:03:12.615Z,103690.74
2019-05-13T08:06:35.970Z,103685.48
2019-05-13T08:10:00.933Z,103688.59
2019-05-13T08:13:24.695Z,103691.50
2019-05-13T08:16:47.886Z,103689.79
2019-05-13T08:20:12.548Z,103682.76
2019-05-13T08:23:36.764Z,103685.02
2019-05-13T08:27:02.082Z,103697.22
2019-05-13T08:30:25.218Z,103697.98
2019-05-13T08:33:48.441Z,103695.81
2019-05-13T08:37:11.673Z,103698.95
2019-05-13T08:40:34.914Z,103687.79
2019-05-13T08:43:58.088Z,103686.17
2019-05-13T08:47:22.377Z,103686.36
2019-05-13T08:50:46.754Z,103686.64
2019-05-13T08:54:11.448Z,103681.75
2019-05-13T08:57:34.974Z,103679.80
2019-05-13T09:00:59.133Z,103678.16
2019-05-13T09:04:23.638Z,103675.73
2019-05-13T09:07:48.148Z,103669.08
2019-05-13T09:11:12.024Z,103672.74
2019-05-13T09:14:35.479Z,103680.76
2019-05-13T09:17:59.129Z,103681.14
2019-05-13T09:21:22.605Z,103680.09
2019-05-13T09:24:45.866Z,103679.22
2019-05-13T09:28:09.218Z,103679.83
2019-05-13T09:31:32.620Z,103676.55
2019-05-13T09:34:55.878Z,103678.81
2019-05-13T09:38:21.883Z,103678.81
2019-05-13T09:41:44.827Z,103682.28
2019-05-13T09:45:08.591Z,103681.11
2019-05-13T09:48:32.243Z,103681.13
2019-05-13T09:51:55.472Z,103681.16
2019-05-13T09:55:26.533Z,103676.74
2019-05-13T09:58:43.831Z,103672.25
2019-05-13T10:02:07.170Z,103670.58
2019-05-13T10:05:31.653Z,103665.23
2019-05-13T10:08:55.247Z,103663.02
2019-05-13T10:12:18.412Z,103662.88
2019-05-13T10:15:42.691Z,103654.03
2019-05-13T10:19:05.938Z,103662.78
2019-05-13T10:22:29.080Z,103656.02
2019-05-13T10:25:58.599Z,103658.64
2019-05-13T10:29:22.606Z,103657.08
2019-05-13T10:32:45.987Z,103656.81
2019-05-13T10:36:11.911Z,103655.06
2019-05-13T10:39:35.340Z,103653.53
2019-05-13T10:42:58.732Z,103656.94
2019-05-13T10:49:47.038Z,103644.61
2019-05-13T10:53:12.335Z,103638.95
2019-05-13T10:56:35.558Z,103637.17
2019-05-13T11:00:02.363Z,103625.06
2019-05-13T11:03:24.286Z,103628.89
2019-05-13T11:06:47.695Z,103629.38
2019-05-13T11:10:13.259Z,103615.08
2019-05-13T11:13:54.068Z,103609.58
2019-05-13T11:17:02.082Z,103606.56
2019-05-13T11:20:25.909Z,103586.98
2019-05-13T11:23:49.598Z,103595.31
2019-05-13T11:27:14.620Z,103600.10
2019-05-13T11:30:37.937Z,103598.24
2019-05-13T11:34:02.379Z,103587.16
2019-05-13T11:37:25.614Z,103586.23
2019-05-13T11:40:51.790Z,103594.52
2019-05-13T11:44:16.768Z,103594.62
2019-05-13T11:47:40.931Z,103578.63
2019-05-13T11:51:04.505Z,103579.02
2019-05-13T11:54:28.963Z,103567.94
2019-05-13T11:57:53.120Z,103562.36
2019-05-13T12:01:16.518Z,103559.64
2019-05-13T12:04:43.076Z,103559.09
2019-05-13T12:08:04.810Z,103550.98
2019-05-13T12:11:28.163Z,103549.91
2019-05-13T12:15:20.285Z,103548.52
2019-05-13T12:18:16.724Z,103539.25
2019-05-13T12:21:45.299Z,103547.52
2019-05-13T12:25:05.945Z,103534.20
2019-05-13T12:28:29.325Z,103520.58
2019-05-13T12:31:53.379Z,103526.28
2019-05-13T12:35:16.901Z,103527.51
2019-05-13T12:38:44.015Z,103513.08
2019-05-13T12:42:05.346Z,103512.52
2019-05-13T12:45:28.884Z,103511.27
2019-05-13T12:48:52.118Z,103510.75
2019-05-13T12:52:15.815Z,103497.63
2019-05-13T12:55:40.098Z,103509.42
2019-05-13T12:59:03.609Z,103509.92
2019-05-13T13:02:26.925Z,103502.02
2019-05-13T13:05:50.207Z,103494.17
2019-05-13T13:09:13.491Z,103489.08
2019-05-13T13:12:36.760Z,103484.30
2019-05-13T13:16:03.496Z,103485.41
2019-05-13T13:19:27.522Z,103481.48
2019-05-13T13:22:50.993Z,103482.88
2019-05-13T13:26:23.429Z,103476.45
2019-05-13T13:30:02.846Z,103480.38
2019-05-13T13:33:18.672Z,103467.56
2019-05-13T13:36:46.092Z,103456.97
2019-05-13T13:40:08.401Z,103464.42
2019-05-13T13:43:37.032Z,103447.20
2019-05-13T13:46:57.061Z,103449.86
2019-05-13T13:50:24.502Z,103450.92
2019-05-13T13:53:45.518Z,103442.91
2019-05-13T13:57:13.130Z,103452.28
2019-05-13T14:00:45.175Z,103441.03
2019-05-13T14:04:02.809Z,103443.27
2019-05-13T14:06:26.940Z,103645.27
2019-05-13T14:07:34.499Z,103430.61
2019-05-13T14:10:51.466Z,103431.94
2019-05-13T14:14:15.066Z,103431.16
2019-05-13T14:17:41.593Z,103425.70
2019-05-13T14:21:43.496Z,103422.63
2019-05-13T14:25:07.399Z,103418.61
2019-05-13T14:28:32.746Z,103409.08
2019-05-13T14:31:56.006Z,103408.04
2019-05-13T14:35:21.790Z,103409.62
2019-05-13T14:38:44.852Z,103406.20
2019-05-13T14:42:08.058Z,103398.23
2019-05-13T14:45:31.887Z,103403.73
2019-05-13T14:48:55.427Z,103390.70
2019-05-13T14:52:18.796Z,103388.22
2019-05-13T14:55:43.795Z,103390.86
2019-05-13T14:59:07.026Z,103385.36
2019-05-13T15:02:32.070Z,103386.84
2019-05-13T15:05:55.738Z,103368.92
2019-05-13T15:09:19.164Z,103368.92
2019-05-13T15:12:42.657Z,103377.55
2019-05-13T15:16:06.191Z,103378.73
2019-05-13T15:19:31.607Z,103380.75
2019-05-13T15:22:54.925Z,103377.61
2019-05-13T15:26:18.720Z,103387.41
2019-05-13T15:29:43.309Z,103373.19
2019-05-13T15:33:06.491Z,103370.51
2019-05-13T15:36:31.528Z,103374.00
2019-05-13T15:39:54.685Z,103353.81
2019-05-13T15:43:17.923Z,103356.97
2019-05-13T15:46:43.779Z,103357.12
2019-05-13T15:50:07.133Z,103347.47
2019-05-13T15:53:32.043Z,103350.30
2019-05-13T15:56:55.725Z,103345.47
2019-05-13T16:00:18.988Z,103346.92
2019-05-13T16:03:42.428Z,103349.43
2019-05-13T16:07:06.079Z,103339.62
2019-05-13T16:10:29.503Z,103345.13
2019-05-13T16:13:52.816Z,103341.85
2019-05-13T16:17:17.066Z,103341.85
2019-05-13T16:20:44.949Z,103331.05
2019-05-13T16:24:05.361Z,103327.55
2019-05-13T16:27:31.050Z,103326.33
2019-05-13T16:30:53.918Z,103333.16
2019-05-13T16:38:22.024Z,103329.16
2019-05-13T16:41:47.272Z,103322.54
2019-05-13T16:45:12.501Z,103331.11
2019-05-13T17:01:12.002Z,103312.50
2019-05-13T17:08:28.074Z,103313.93
2019-05-13T17:20:06.040Z,103294.08
2019-05-13T17:35:42.463Z,103305.52
2019-05-13T17:43:24.275Z,103294.42
2019-05-13T17:47:01.745Z,103297.71
2019-05-13T17:58:42.797Z,103286.09
2019-05-13T18:02:06.847Z,103282.86
2019-05-13T18:09:27.677Z,103291.66
2019-05-13T18:21:11.911Z,103285.98
2019-05-13T18:28:58.033Z,103288.20
2019-05-13T18:40:21.797Z,103271.55
2019-05-13T18:44:04.479Z,103275.41
2019-05-13T18:47:40.250Z,103272.19
2019-05-13T18:51:23.299Z,103282.28
2019-05-13T18:55:02.052Z,103271.61
2019-05-13T18:58:45.071Z,103272.19
2019-05-13T19:02:21.370Z,103275.45
2019-05-13T19:05:45.330Z,103272.39
2019-05-13T19:09:21.707Z,103276.94
2019-05-13T19:13:04.692Z,103290.13
2019-05-13T19:16:42.166Z,103292.25
2019-05-13T19:20:17.933Z,103295.16
2019-05-13T19:24:02.079Z,103297.95
2019-05-13T19:27:44.812Z,103295.05
2019-05-13T19:31:22.120Z,103296.67
2019-05-13T19:35:46.415Z,103295.70
2019-05-13T19:39:22.804Z,103307.22
2019-05-13T19:43:08.149Z,103306.42
2019-05-13T19:46:31.690Z,103308.52
2019-05-13T19:50:07.493Z,103310.84
2019-05-13T19:53:51.671Z,103303.41
2019-05-13T19:57:34.258Z,103306.95
2019-05-13T20:01:11.650Z,103302.59
2019-05-13T20:04:35.121Z,103306.94
2019-05-13T20:08:21.187Z,103306.99
2019-05-13T20:12:21.255Z,103310.62
2019-05-13T20:16:04.070Z,103308.06
2019-05-13T20:19:27.335Z,103315.11
2019-05-13T20:23:11.889Z,103313.98
2019-05-13T20:26:47.131Z,103319.75
2019-05-13T20:30:23.583Z,103317.11
2019-05-13T20:34:06.190Z,103312.88
2019-05-13T20:37:42.601Z,103321.16
2019-05-13T20:41:17.902Z,103322.22
2019-05-13T20:45:02.390Z,103329.81
2019-05-13T20:48:32.338Z,103331.05
2019-05-13T20:52:15.538Z,103327.96
2019-05-13T20:56:11.829Z,103340.77
2019-05-13T20:59:54.353Z,103338.81
2019-05-13T21:03:17.484Z,103338.92
2019-05-13T21:06:42.224Z,103340.58
2019-05-13T21:10:05.944Z,103338.66
2019-05-13T21:37:51.241Z,103348.69
2019-05-13T21:41:27.377Z,103357.98
2019-05-13T21:45:11.161Z,103357.34
2019-05-13T21:48:53.491Z,103355.38
2019-05-13T21:52:37.183Z,103357.83
2019-05-13T21:56:13.014Z,103354.55
2019-05-13T21:59:55.713Z,103357.05
2019-05-13T22:03:33.559Z,103352.23
2019-05-13T22:07:17.445Z,103354.19
2019-05-13T22:10:41.639Z,103348.85
2019-05-13T22:14:35.370Z,103347.22
2019-05-13T22:18:11.389Z,103346.47
2019-05-13T22:21:47.504Z,103340.09
2019-05-13T22:25:30.339Z,103340.19
2019-05-13T22:29:07.546Z,103340.09
2019-05-13T22:32:52.170Z,103335.91
2019-05-13T22:36:34.059Z,103341.01
2019-05-13T22:39:57.543Z,103335.09
2019-05-13T22:43:33.699Z,103334.63
2019-05-13T22:47:16.335Z,103335.36
2019-05-13T22:50:53.485Z,103333.12
2019-05-13T22:54:36.043Z,103332.83
2019-05-13T22:58:12.097Z,103331.13
2019-05-13T23:01:54.793Z,103322.78
2019-05-13T23:05:30.878Z,103329.52
2019-05-13T23:09:13.486Z,103327.05
2019-05-13T23:12:51.400Z,103327.43
2019-05-13T23:16:33.798Z,103325.72
2019-05-13T23:20:11.053Z,103324.53
2019-05-13T23:23:53.672Z,103328.59
2019-05-13T23:27:31.979Z,103327.19
2019-05-13T23:31:14.159Z,103324.59
2019-05-13T23:34:51.258Z,103318.66
2019-05-13T23:38:35.017Z,103319.67
2019-05-13T23:42:12.187Z,103315.91
2019-05-13T23:45:54.904Z,103316.13
2019-05-13T23:49:31.676Z,103312.42
2019-05-13T23:52:55.072Z,103320.52
2019-05-13T23:56:31.111Z,103314.14
2019-05-13T23:59:54.244Z,103311.02
